createdAt,value
2022-09-15T00:02:59.328Z,14.28
2022-09-15T00:06:06.665Z,14.78
2022-09-15T00:09:12.462Z,13.72
2022-09-15T00:12:18.118Z,14.10
2022-09-15T00:15:25.154Z,17.02
2022-09-15T00:18:32.269Z,16.27
2022-09-15T00:21:41.490Z,15.68
2022-09-15T00:24:48.423Z,15.80
2022-09-15T00:27:54.521Z,15.58
2022-09-15T00:31:02.925Z,16.62
2022-09-15T00:34:11.644Z,15.93
2022-09-15T00:37:17.449Z,15.53
2022-09-15T00:40:24.502Z,15.83
2022-09-15T00:43:31.342Z,14.60
2022-09-15T00:46:41.966Z,15.45
2022-09-15T00:49:49.206Z,21.30
2022-09-15T00:53:06.215Z,18.02
2022-09-15T00:56:12.711Z,17.40
2022-09-15T00:59:21.342Z,19.52
2022-09-15T01:02:31.143Z,16.15
2022-09-15T01:05:43.542Z,18.30
2022-09-15T01:09:07.710Z,17.57
2022-09-15T01:12:14.809Z,16.85
2022-09-15T01:15:24.242Z,17.98
2022-09-15T01:19:18.279Z,20.82
2022-09-15T01:22:54.822Z,17.10
2022-09-15T01:26:21.594Z,17.90
2022-09-15T01:30:08.618Z,16.67
2022-09-15T01:33:38.045Z,17.45
2022-09-15T01:37:01.227Z,17.62
2022-09-15T01:40:08.676Z,16.77
2022-09-15T01:43:15.543Z,17.42
2022-09-15T01:46:20.975Z,15.93
2022-09-15T01:49:28.237Z,16.37
2022-09-15T01:52:36.166Z,16.50
2022-09-15T01:55:55.288Z,18.32
2022-09-15T01:59:02.976Z,16.48
2022-09-15T02:02:21.604Z,15.75
2022-09-15T02:05:37.750Z,17.17
2022-09-15T02:09:05.352Z,20.02
2022-09-15T02:12:38.910Z,17.42
2022-09-15T02:19:00.685Z,16.27
2022-09-15T02:22:15.525Z,17.20
2022-09-15T02:25:27.512Z,14.63
2022-09-15T02:28:38.016Z,16.73
2022-09-15T02:31:43.745Z,15.88
2022-09-15T02:34:54.784Z,16.23
2022-09-15T02:38:01.111Z,17.90
2022-09-15T02:41:08.189Z,15.95
2022-09-15T02:44:13.595Z,16.25
2022-09-15T02:47:21.217Z,16.27
2022-09-15T02:50:26.989Z,17.15
2022-09-15T02:53:33.716Z,19.37
2022-09-15T02:56:39.915Z,17.00
2022-09-15T03:00:03.569Z,17.00
2022-09-15T03:03:08.217Z,16.30
2022-09-15T03:06:21.186Z,18.57
2022-09-15T03:09:26.984Z,16.80
2022-09-15T03:12:33.759Z,16.10
2022-09-15T03:15:40.849Z,20.80
2022-09-15T03:18:49.881Z,16.87
2022-09-15T03:21:56.199Z,17.95
2022-09-15T03:25:02.368Z,19.35
2022-09-15T03:28:10.566Z,22.73
2022-09-15T03:31:17.372Z,17.75
2022-09-15T03:34:22.340Z,16.67
2022-09-15T03:37:28.729Z,17.00
2022-09-15T03:40:35.913Z,16.77
2022-09-15T03:43:42.818Z,19.02
2022-09-15T03:46:48.018Z,18.27
2022-09-15T03:49:55.609Z,17.70
2022-09-15T03:53:01.475Z,17.30
2022-09-15T03:56:10.667Z,16.95
2022-09-15T03:59:16.970Z,19.37
2022-09-15T04:02:23.300Z,20.62
2022-09-15T04:05:28.811Z,18.32
2022-09-15T04:08:35.007Z,16.85
2022-09-15T04:11:40.823Z,21.30
2022-09-15T04:14:47.019Z,21.95
2022-09-15T04:17:52.420Z,28.98
2022-09-15T04:20:59.380Z,24.52
2022-09-15T04:24:05.339Z,22.37
2022-09-15T04:27:11.552Z,23.05
2022-09-15T04:30:17.560Z,21.10
2022-09-15T04:33:22.911Z,21.55
2022-09-15T04:36:38.507Z,19.60
2022-09-15T04:39:44.121Z,19.02
2022-09-15T04:42:49.281Z,23.27
2022-09-15T04:45:54.687Z,25.17
2022-09-15T04:49:00.633Z,20.27
2022-09-15T04:52:09.482Z,22.13
2022-09-15T04:55:18.691Z,20.75
2022-09-15T04:58:27.739Z,21.27
2022-09-15T05:01:38.857Z,28.67
2022-09-15T05:04:43.993Z,22.65
2022-09-15T05:07:49.961Z,19.37
2022-09-15T05:10:58.156Z,19.50
2022-09-15T05:14:05.357Z,20.05
2022-09-15T05:17:11.789Z,20.02
2022-09-15T05:20:30.878Z,20.08
2022-09-15T05:23:37.699Z,19.55
2022-09-15T05:26:44.416Z,20.10
2022-09-15T05:30:00.341Z,19.95
2022-09-15T05:32:59.057Z,20.05
2022-09-15T05:36:12.694Z,19.80
2022-09-15T05:39:17.876Z,19.95
2022-09-15T05:42:24.929Z,18.48
2022-09-15T05:45:32.753Z,21.07
2022-09-15T05:48:37.867Z,17.65
2022-09-15T05:51:43.797Z,18.75
2022-09-15T05:54:50.645Z,17.98
2022-09-15T05:57:57.651Z,25.97
2022-09-15T06:01:06.002Z,17.00
2022-09-15T06:04:13.466Z,15.53
2022-09-15T06:07:21.320Z,13.45
2022-09-15T06:10:27.510Z,13.25
2022-09-15T06:13:33.504Z,14.45
2022-09-15T06:16:39.683Z,13.80
2022-09-15T06:19:44.969Z,13.43
2022-09-15T06:22:49.612Z,11.68
2022-09-15T06:25:55.580Z,12.90
2022-09-15T06:29:17.946Z,12.53
2022-09-15T06:32:23.892Z,11.80
2022-09-15T06:35:28.505Z,13.80
2022-09-15T06:38:33.828Z,11.00
2022-09-15T06:41:58.795Z,11.08
2022-09-15T06:44:48.949Z,11.80
2022-09-15T06:48:20.206Z,12.33
2022-09-15T06:51:11.374Z,13.05
2022-09-15T06:54:18.803Z,11.08
2022-09-15T06:57:25.939Z,12.53
2022-09-15T07:00:42.225Z,13.40
2022-09-15T07:03:47.186Z,13.10
2022-09-15T07:06:54.327Z,16.97
2022-09-15T07:10:02.444Z,13.13
2022-09-15T07:13:19.607Z,13.98
2022-09-15T07:16:41.455Z,13.88
2022-09-15T07:19:53.981Z,15.72
2022-09-15T07:23:03.477Z,13.60
2022-09-15T07:26:10.461Z,14.87
2022-09-15T07:29:19.560Z,13.72
2022-09-15T07:32:30.229Z,12.05
2022-09-15T07:35:37.515Z,12.63
2022-09-15T07:38:50.841Z,12.03
2022-09-15T07:42:02.458Z,11.75
2022-09-15T07:45:10.069Z,12.07
2022-09-15T07:48:54.084Z,11.35
2022-09-15T07:52:23.089Z,14.78
2022-09-15T07:55:28.342Z,11.97
2022-09-15T07:58:35.075Z,10.72
2022-09-15T08:01:41.803Z,12.07
2022-09-15T08:04:49.478Z,10.80
2022-09-15T08:07:55.746Z,14.00
2022-09-15T08:11:18.277Z,11.40
2022-09-15T08:14:22.343Z,11.40
2022-09-15T08:17:29.811Z,9.85
2022-09-15T08:20:38.041Z,10.70
2022-09-15T08:23:44.916Z,15.28
2022-09-15T08:26:52.428Z,10.98
2022-09-15T08:29:58.379Z,14.38
2022-09-15T08:33:04.396Z,10.68
2022-09-15T08:36:10.567Z,10.32
2022-09-15T08:39:18.588Z,10.43
2022-09-15T08:42:34.338Z,14.55
2022-09-15T08:45:45.246Z,12.53
2022-09-15T08:49:02.035Z,9.88
2022-09-15T08:52:06.342Z,8.90
2022-09-15T08:55:15.050Z,9.78
2022-09-15T08:58:20.595Z,8.23
2022-09-15T09:02:07.490Z,9.30
2022-09-15T09:05:51.292Z,14.50
2022-09-15T09:09:14.151Z,13.83
2022-09-15T09:13:00.707Z,10.82
2022-09-15T09:16:36.166Z,9.98
2022-09-15T09:20:15.004Z,9.10
2022-09-15T09:23:31.016Z,13.08
2022-09-15T09:26:36.240Z,9.65
2022-09-15T09:29:48.993Z,11.25
2022-09-15T09:33:01.765Z,11.28
2022-09-15T09:36:08.923Z,10.40
2022-09-15T09:39:15.286Z,19.75
2022-09-15T09:42:25.785Z,9.38
2022-09-15T09:49:40.628Z,10.72
2022-09-15T09:52:53.432Z,10.10
2022-09-15T09:56:00.283Z,10.67
2022-09-15T10:02:32.221Z,10.25
2022-09-15T10:05:39.612Z,9.70
2022-09-15T10:08:46.277Z,12.37
2022-09-15T10:12:06.038Z,8.83
2022-09-15T10:15:22.747Z,8.18
2022-09-15T10:18:52.079Z,9.90
2022-09-15T10:21:55.743Z,10.98
2022-09-15T10:25:01.832Z,12.90
2022-09-15T10:28:30.654Z,9.28
2022-09-15T10:31:50.491Z,9.28
2022-09-15T10:34:58.903Z,9.75
2022-09-15T10:38:28.850Z,10.23
2022-09-15T10:41:47.571Z,9.68
2022-09-15T10:45:28.104Z,12.47
2022-09-15T10:48:49.055Z,11.28
2022-09-15T10:52:32.244Z,11.38
2022-09-15T10:55:53.027Z,9.78
2022-09-15T10:59:15.200Z,10.58
2022-09-15T11:02:35.817Z,12.50
2022-09-15T11:06:26.700Z,11.68
2022-09-15T11:09:56.665Z,10.72
2022-09-15T11:13:21.781Z,10.05
2022-09-15T11:16:56.215Z,11.68
2022-09-15T11:20:33.581Z,13.85
2022-09-15T11:24:06.117Z,10.93
2022-09-15T11:27:29.016Z,13.60
2022-09-15T11:30:39.479Z,12.28
2022-09-15T11:34:00.633Z,13.18
2022-09-15T11:37:33.762Z,11.80
2022-09-15T11:40:49.550Z,15.38
2022-09-15T11:44:17.933Z,13.83
2022-09-15T11:47:53.233Z,11.73
2022-09-15T11:51:10.661Z,13.95
2022-09-15T11:54:47.818Z,26.17
2022-09-15T11:58:49.407Z,13.78
2022-09-15T12:02:28.436Z,13.75
2022-09-15T12:05:51.646Z,27.70
2022-09-15T12:12:17.629Z,14.23
2022-09-15T12:15:35.745Z,11.97
2022-09-15T12:19:07.964Z,13.38
2022-09-15T12:22:32.472Z,17.55
2022-09-15T12:26:32.285Z,13.95
2022-09-15T12:29:55.111Z,15.35
2022-09-15T12:33:02.661Z,15.13
2022-09-15T12:36:08.532Z,14.40
2022-09-15T12:39:15.609Z,14.75
2022-09-15T12:42:42.164Z,19.15
2022-09-15T12:45:52.824Z,16.52
2022-09-15T12:49:00.593Z,14.70
2022-09-15T12:52:06.177Z,12.78
2022-09-15T12:55:17.120Z,14.90
2022-09-15T12:58:24.875Z,16.20
2022-09-15T13:01:43.015Z,15.05
2022-09-15T13:05:00.270Z,17.02
2022-09-15T13:08:11.649Z,14.13
2022-09-15T13:11:32.051Z,15.18
2022-09-15T13:14:46.236Z,16.42
2022-09-15T13:17:54.590Z,13.83
2022-09-15T13:21:09.462Z,12.85
2022-09-15T13:24:16.394Z,12.47
2022-09-15T13:27:24.654Z,14.95
2022-09-15T13:30:43.883Z,11.57
2022-09-15T13:38:20.235Z,10.32
2022-09-15T13:41:49.548Z,11.12
2022-09-15T13:45:09.723Z,14.33
2022-09-15T13:48:40.384Z,15.93
2022-09-15T13:51:51.487Z,14.25
2022-09-15T13:56:02.810Z,14.80
2022-09-15T13:59:16.952Z,17.92
2022-09-15T14:02:23.963Z,14.10
2022-09-15T14:05:31.099Z,13.48
2022-09-15T14:08:46.244Z,12.45
2022-09-15T14:11:50.954Z,13.40
2022-09-15T14:15:06.331Z,13.48
2022-09-15T14:18:13.249Z,12.23
2022-09-15T14:21:20.389Z,11.38
2022-09-15T14:24:36.746Z,12.47
2022-09-15T14:27:46.891Z,10.38
2022-09-15T14:30:53.280Z,13.22
2022-09-15T14:34:00.185Z,11.30
2022-09-15T14:37:21.878Z,10.75
2022-09-15T14:40:39.666Z,12.43
2022-09-15T14:43:49.522Z,13.10
2022-09-15T14:46:55.516Z,16.45
2022-09-15T14:50:01.302Z,16.00
2022-09-15T14:53:26.065Z,16.97
2022-09-15T14:56:37.527Z,19.05
2022-09-15T14:59:52.019Z,15.35
2022-09-15T15:03:17.604Z,14.55
2022-09-15T15:06:32.336Z,15.03
2022-09-15T15:09:53.379Z,12.23
2022-09-15T15:13:11.531Z,13.78
2022-09-15T15:16:24.120Z,12.37
2022-09-15T15:22:56.685Z,11.97
2022-09-15T15:26:02.934Z,13.35
2022-09-15T15:29:08.780Z,14.85
2022-09-15T15:32:22.234Z,16.42
2022-09-15T15:35:32.963Z,12.58
2022-09-15T15:38:38.713Z,13.40
2022-09-15T15:41:51.330Z,13.58
2022-09-15T15:45:20.423Z,17.50
2022-09-15T15:48:26.538Z,14.70
2022-09-15T15:51:33.307Z,15.35
2022-09-15T15:54:41.349Z,17.82
2022-09-15T15:57:53.445Z,17.00
2022-09-15T16:01:05.714Z,16.57
2022-09-15T16:04:11.883Z,15.88
2022-09-15T16:07:18.629Z,16.75
2022-09-15T16:10:30.756Z,16.95
2022-09-15T16:13:37.868Z,17.48
2022-09-15T16:16:45.775Z,19.73
2022-09-15T16:19:52.493Z,18.70
2022-09-15T16:22:57.795Z,19.60
2022-09-15T16:26:14.643Z,18.17
2022-09-15T16:29:21.272Z,18.57
2022-09-15T16:32:33.348Z,20.32
2022-09-15T16:35:51.474Z,19.95
2022-09-15T16:38:58.359Z,23.07
2022-09-15T16:42:04.580Z,20.20
2022-09-15T16:45:12.071Z,20.35
2022-09-15T16:48:18.424Z,21.60
2022-09-15T16:51:31.438Z,20.55
2022-09-15T16:54:36.164Z,26.42
2022-09-15T16:57:42.222Z,20.40
2022-09-15T17:00:51.567Z,20.27
2022-09-15T17:03:57.119Z,20.50
2022-09-15T17:07:02.670Z,17.55
2022-09-15T17:10:09.615Z,17.85
2022-09-15T17:13:16.672Z,21.73
2022-09-15T17:16:24.059Z,18.77
2022-09-15T17:19:31.768Z,18.50
2022-09-15T17:22:38.972Z,18.52
2022-09-15T17:25:52.797Z,21.37
2022-09-15T17:28:59.047Z,26.93
2022-09-15T17:32:07.620Z,23.73
2022-09-15T17:35:16.244Z,21.60
2022-09-15T17:38:21.500Z,19.98
2022-09-15T17:41:32.640Z,17.48
2022-09-15T17:44:37.828Z,16.95
2022-09-15T17:47:43.517Z,18.40
2022-09-15T17:50:50.381Z,24.00
2022-09-15T17:53:55.728Z,21.80
2022-09-15T17:57:01.200Z,18.42
2022-09-15T18:00:07.032Z,21.35
2022-09-15T18:03:23.065Z,20.08
2022-09-15T18:06:28.975Z,24.75
2022-09-15T18:09:34.851Z,21.27
2022-09-15T18:12:41.797Z,20.55
2022-09-15T18:15:51.109Z,19.65
2022-09-15T18:18:58.411Z,24.37
2022-09-15T18:22:06.548Z,22.15
2022-09-15T18:25:12.825Z,25.48
2022-09-15T18:28:21.528Z,25.80
2022-09-15T18:31:29.506Z,30.95
2022-09-15T18:34:37.306Z,25.57
2022-09-15T18:37:43.183Z,28.50
2022-09-15T18:40:50.068Z,29.10
2022-09-15T18:43:58.059Z,27.40
2022-09-15T18:47:02.952Z,26.97
2022-09-15T18:50:10.250Z,30.65
2022-09-15T18:53:15.775Z,24.85
2022-09-15T18:56:29.783Z,30.92
2022-09-15T18:59:35.453Z,31.20
2022-09-15T19:02:41.574Z,27.58
2022-09-15T19:05:47.300Z,24.67
2022-09-15T19:08:53.225Z,26.00
2022-09-15T19:11:58.432Z,29.15
2022-09-15T19:15:04.293Z,26.60
2022-09-15T19:18:10.455Z,26.95
2022-09-15T19:21:27.199Z,26.70
2022-09-15T19:24:32.928Z,24.90
2022-09-15T19:27:39.504Z,25.97
2022-09-15T19:30:46.621Z,28.85
2022-09-15T19:33:54.126Z,27.37
2022-09-15T19:37:01.941Z,28.30
2022-09-15T19:40:09.971Z,28.50
2022-09-15T19:43:17.966Z,31.00
2022-09-15T19:46:34.174Z,36.23
2022-09-15T19:49:40.465Z,33.00
2022-09-15T19:52:46.314Z,31.02
2022-09-15T19:55:52.334Z,32.33
2022-09-15T19:58:58.981Z,31.52
2022-09-15T20:02:05.273Z,30.17
2022-09-15T20:05:11.857Z,32.70
2022-09-15T20:08:19.959Z,30.72
2022-09-15T20:11:26.529Z,32.63
2022-09-15T20:14:33.002Z,34.45
2022-09-15T20:17:39.487Z,32.45
2022-09-15T20:20:46.199Z,31.80
2022-09-15T20:23:55.289Z,31.73
2022-09-15T20:27:02.879Z,35.17
2022-09-15T20:30:09.793Z,29.20
2022-09-15T20:33:16.235Z,31.68
2022-09-15T20:36:24.452Z,34.30
2022-09-15T20:39:31.436Z,33.25
2022-09-15T20:42:38.154Z,32.40
2022-09-15T20:45:45.247Z,32.35
2022-09-15T20:48:51.087Z,31.57
2022-09-15T20:51:58.432Z,30.62
2022-09-15T20:55:03.724Z,33.85
2022-09-15T20:58:09.654Z,34.75
2022-09-15T21:01:27.211Z,31.42
2022-09-15T21:04:33.220Z,31.55
2022-09-15T21:07:39.428Z,34.27
2022-09-15T21:10:47.380Z,31.27
2022-09-15T21:13:55.479Z,32.65
2022-09-15T21:17:02.863Z,32.10
2022-09-15T21:20:08.133Z,27.32
2022-09-15T21:23:14.027Z,31.45
2022-09-15T21:26:22.977Z,32.00
2022-09-15T21:29:30.385Z,32.80
2022-09-15T21:32:37.805Z,27.30
2022-09-15T21:35:44.042Z,30.88
2022-09-15T21:38:52.261Z,29.42
2022-09-15T21:42:01.696Z,29.05
2022-09-15T21:45:08.415Z,28.75
2022-09-15T21:48:14.509Z,27.95
2022-09-15T21:51:24.656Z,31.35
2022-09-15T21:54:29.347Z,25.95
2022-09-15T21:57:35.829Z,34.70
2022-09-15T22:00:41.590Z,29.48
2022-09-15T22:03:49.652Z,28.77
2022-09-15T22:06:56.655Z,29.60
2022-09-15T22:10:04.209Z,25.72
2022-09-15T22:13:10.822Z,25.95
2022-09-15T22:16:20.439Z,25.55
2022-09-15T22:19:26.687Z,22.75
2022-09-15T22:22:32.423Z,21.15
2022-09-15T22:25:40.511Z,21.45
2022-09-15T22:28:46.087Z,21.48
2022-09-15T22:31:52.025Z,20.77
2022-09-15T22:34:57.832Z,23.62
2022-09-15T22:38:03.767Z,24.20
2022-09-15T22:41:09.962Z,24.45
2022-09-15T22:44:15.882Z,22.90
2022-09-15T22:47:24.225Z,22.77
2022-09-15T22:50:30.486Z,23.92
2022-09-15T22:53:36.859Z,23.35
2022-09-15T22:56:43.048Z,20.77
2022-09-15T22:59:49.363Z,22.87
2022-09-15T23:02:55.873Z,25.75
2022-09-15T23:06:03.664Z,26.15
2022-09-15T23:09:12.081Z,26.23
2022-09-15T23:12:18.104Z,27.52
2022-09-15T23:15:26.309Z,26.42
2022-09-15T23:18:33.253Z,25.02
2022-09-15T23:21:39.238Z,26.12
2022-09-15T23:24:45.009Z,31.62
2022-09-15T23:27:49.949Z,27.17
2022-09-15T23:30:56.598Z,24.43
2022-09-15T23:34:01.985Z,30.02
2022-09-15T23:37:07.164Z,25.08
2022-09-15T23:40:13.447Z,23.80
2022-09-15T23:43:19.491Z,23.40
2022-09-15T23:46:25.504Z,22.37
2022-09-15T23:49:31.874Z,30.75
2022-09-15T23:52:38.362Z,24.75
2022-09-15T23:55:43.835Z,22.02
2022-09-15T23:58:49.598Z,21.85
